createdAt,value
2018-07-17T00:01:11.170Z,56.57
2018-07-17T00:03:40.646Z,57.30
2018-07-17T00:06:10.290Z,57.31
2018-07-17T00:08:39.065Z,57.44
2018-07-17T00:11:07.877Z,57.39
2018-07-17T00:13:37.422Z,57.34
2018-07-17T00:16:06.672Z,57.30
2018-07-17T00:18:36.353Z,57.58
2018-07-17T00:21:06.078Z,57.92
2018-07-17T00:23:35.228Z,58.23
2018-07-17T00:26:04.882Z,58.38
2018-07-17T00:28:34.067Z,58.16
2018-07-17T00:31:03.627Z,58.11
2018-07-17T00:33:32.474Z,57.98
2018-07-17T00:36:01.323Z,58.79
2018-07-17T00:38:30.796Z,58.86
2018-07-17T00:40:59.544Z,58.35
2018-07-17T00:43:28.290Z,59.31
2018-07-17T00:45:57.990Z,58.44
2018-07-17T00:48:26.739Z,58.95
2018-07-17T00:50:55.534Z,58.83
2018-07-17T00:53:24.333Z,59.95
2018-07-17T00:55:54.053Z,58.95
2018-07-17T00:58:22.763Z,59.63
2018-07-17T01:00:50.575Z,59.07
2018-07-17T01:03:26.022Z,60.10
2018-07-17T01:06:00.209Z,60.09
2018-07-17T01:08:34.954Z,59.79
2018-07-17T01:11:08.923Z,59.83
2018-07-17T01:13:59.848Z,60.56
2018-07-17T01:16:28.664Z,60.48
2018-07-17T01:18:58.433Z,60.18
2018-07-17T01:21:27.210Z,60.51
2018-07-17T01:23:55.988Z,59.83
2018-07-17T01:26:25.332Z,59.50
2018-07-17T01:28:54.094Z,59.91
2018-07-17T01:31:23.353Z,60.71
2018-07-17T01:33:52.682Z,59.76
2018-07-17T01:36:21.418Z,60.90
2018-07-17T01:38:50.258Z,61.09
2018-07-17T01:41:19.026Z,60.92
2018-07-17T01:43:48.338Z,60.83
2018-07-17T01:46:17.206Z,60.42
2018-07-17T01:48:46.024Z,61.22
2018-07-17T01:51:14.808Z,61.33
2018-07-17T01:53:43.615Z,62.11
2018-07-17T01:56:13.152Z,61.50
2018-07-17T01:58:41.929Z,61.87
2018-07-17T02:01:10.646Z,61.94
2018-07-17T02:03:40.194Z,62.08
2018-07-17T02:06:09.727Z,62.70
2018-07-17T02:08:38.486Z,62.42
2018-07-17T02:11:07.289Z,61.97
2018-07-17T02:13:37.318Z,61.65
2018-07-17T02:16:06.430Z,61.70
2018-07-17T02:18:36.557Z,62.35
2018-07-17T02:21:05.695Z,62.20
2018-07-17T02:23:35.865Z,61.59
2018-07-17T02:26:05.479Z,62.58
2018-07-17T02:28:34.726Z,62.33
2018-07-17T02:31:03.738Z,62.51
2018-07-17T02:33:32.563Z,62.97
2018-07-17T02:36:01.355Z,62.27
2018-07-17T02:38:30.246Z,63.22
2018-07-17T02:40:59.326Z,62.08
2018-07-17T02:43:28.278Z,62.52
2018-07-17T02:45:57.700Z,63.62
2018-07-17T02:48:26.465Z,62.58
2018-07-17T02:50:55.218Z,62.44
2018-07-17T02:53:24.079Z,62.27
2018-07-17T02:55:53.770Z,62.92
2018-07-17T02:58:22.547Z,62.95
2018-07-17T03:00:51.314Z,61.80
2018-07-17T03:03:21.012Z,60.15
2018-07-17T03:05:49.771Z,58.02
2018-07-17T03:08:18.925Z,57.20
2018-07-17T03:10:47.666Z,54.75
2018-07-17T03:13:16.465Z,54.57
2018-07-17T03:15:45.306Z,52.36
2018-07-17T03:18:14.643Z,51.53
2018-07-17T03:20:43.372Z,50.45
2018-07-17T03:23:13.622Z,49.55
2018-07-17T03:25:43.035Z,47.86
2018-07-17T03:28:11.771Z,47.52
2018-07-17T03:30:40.554Z,47.57
2018-07-17T03:33:09.311Z,46.64
2018-07-17T03:35:38.214Z,44.88
2018-07-17T03:38:07.407Z,45.43
2018-07-17T03:40:36.396Z,45.63
2018-07-17T03:43:05.490Z,44.19
2018-07-17T03:45:34.771Z,44.34
2018-07-17T03:48:03.853Z,43.94
2018-07-17T03:50:33.730Z,43.15
2018-07-17T03:53:02.614Z,42.36
2018-07-17T03:55:32.310Z,43.26
2018-07-17T03:58:02.049Z,42.53
2018-07-17T04:00:30.799Z,40.83
2018-07-17T04:03:00.322Z,41.04
2018-07-17T04:05:29.928Z,40.71
2018-07-17T04:07:59.507Z,41.20
2018-07-17T04:10:28.333Z,39.99
2018-07-17T04:12:57.134Z,40.68
2018-07-17T04:15:25.963Z,40.91
2018-07-17T04:17:55.855Z,42.02
2018-07-17T04:20:24.615Z,42.58
2018-07-17T04:22:54.401Z,43.97
2018-07-17T04:25:23.896Z,45.18
2018-07-17T04:27:52.656Z,45.98
2018-07-17T04:30:21.398Z,47.24
2018-07-17T04:32:50.207Z,48.07
2018-07-17T04:35:18.943Z,48.47
2018-07-17T04:37:47.858Z,49.07
2018-07-17T04:40:16.822Z,49.49
2018-07-17T04:42:45.623Z,50.51
2018-07-17T04:45:14.388Z,50.99
2018-07-17T04:47:43.219Z,51.82
2018-07-17T04:50:12.253Z,52.50
2018-07-17T04:52:41.047Z,52.77
2018-07-17T04:55:10.855Z,53.26
2018-07-17T04:57:40.215Z,53.96
2018-07-17T05:00:09.087Z,54.45
2018-07-17T05:02:38.713Z,53.88
2018-07-17T05:05:08.776Z,53.40
2018-07-17T05:07:38.362Z,54.24
2018-07-17T05:10:07.162Z,53.81
2018-07-17T05:12:36.854Z,54.72
2018-07-17T05:15:06.006Z,54.07
2018-07-17T05:17:34.962Z,55.10
2018-07-17T05:20:04.891Z,52.15
2018-07-17T05:22:34.954Z,52.19
2018-07-17T05:25:04.919Z,51.68
2018-07-17T05:27:33.819Z,51.49
2018-07-17T05:30:02.653Z,51.67
2018-07-17T05:32:31.502Z,51.50
2018-07-17T05:35:00.347Z,50.54
2018-07-17T05:37:29.246Z,50.53
2018-07-17T05:39:58.063Z,49.68
2018-07-17T05:42:26.903Z,49.40
2018-07-17T05:44:55.641Z,48.93
2018-07-17T05:47:24.426Z,48.53
2018-07-17T05:49:53.461Z,48.10
2018-07-17T05:52:22.226Z,47.37
2018-07-17T05:54:51.611Z,46.45
2018-07-17T05:57:21.098Z,47.94
2018-07-17T05:59:49.908Z,45.96
2018-07-17T06:02:19.093Z,45.96
2018-07-17T06:04:48.426Z,45.74
2018-07-17T06:07:17.955Z,45.95
2018-07-17T06:09:46.695Z,44.98
2018-07-17T06:12:15.446Z,44.44
2018-07-17T06:14:44.254Z,45.06
2018-07-17T06:17:12.998Z,45.16
2018-07-17T06:19:42.330Z,44.38
2018-07-17T06:22:11.681Z,43.90
2018-07-17T06:24:41.005Z,43.98
2018-07-17T06:27:10.423Z,42.84
2018-07-17T06:29:39.203Z,43.77
2018-07-17T06:32:08.022Z,43.25
2018-07-17T06:34:36.839Z,43.10
2018-07-17T06:37:06.011Z,42.88
2018-07-17T06:39:35.154Z,43.26
2018-07-17T06:42:04.968Z,42.93
2018-07-17T06:44:34.100Z,42.46
2018-07-17T06:47:03.054Z,41.70
2018-07-17T06:49:31.861Z,42.08
2018-07-17T06:52:00.728Z,41.30
2018-07-17T06:54:29.503Z,41.62
2018-07-17T06:56:58.834Z,41.28
2018-07-17T06:59:27.654Z,40.85
2018-07-17T07:01:57.510Z,41.62
2018-07-17T07:04:26.959Z,40.70
2018-07-17T07:06:56.655Z,41.49
2018-07-17T07:09:25.403Z,40.13
2018-07-17T07:11:54.152Z,40.50
2018-07-17T07:14:22.914Z,40.56
2018-07-17T07:16:51.854Z,40.48
2018-07-17T07:19:21.566Z,40.24
2018-07-17T07:21:50.329Z,40.21
2018-07-17T07:24:19.855Z,39.11
2018-07-17T07:26:49.573Z,39.46
2018-07-17T07:29:18.352Z,39.55
2018-07-17T07:31:47.099Z,38.95
2018-07-17T07:34:15.923Z,38.83
2018-07-17T07:36:44.672Z,39.69
2018-07-17T07:39:13.666Z,38.87
2018-07-17T07:41:42.424Z,39.24
2018-07-17T07:44:11.164Z,39.42
2018-07-17T07:46:40.233Z,38.37
2018-07-17T07:49:09.075Z,36.88
2018-07-17T07:51:38.016Z,37.52
2018-07-17T07:54:06.915Z,36.52
2018-07-17T07:56:36.807Z,37.58
2018-07-17T07:59:05.868Z,36.45
2018-07-17T08:01:36.241Z,37.06
2018-07-17T08:04:06.146Z,36.87
2018-07-17T08:06:37.689Z,35.66
2018-07-17T08:09:08.019Z,35.53
2018-07-17T08:11:36.913Z,35.32
2018-07-17T08:14:06.103Z,35.28
2018-07-17T08:16:37.105Z,36.15
2018-07-17T08:19:06.516Z,35.89
2018-07-17T08:21:36.402Z,36.04
2018-07-17T08:24:06.422Z,35.98
2018-07-17T08:26:36.577Z,35.67
2018-07-17T08:29:05.705Z,34.74
2018-07-17T08:31:34.678Z,33.85
2018-07-17T08:34:03.761Z,34.36
2018-07-17T08:36:32.581Z,33.62
2018-07-17T08:39:01.542Z,34.30
2018-07-17T08:41:30.404Z,33.37
2018-07-17T08:43:59.166Z,34.05
2018-07-17T08:46:27.971Z,33.67
2018-07-17T08:48:56.986Z,32.92
2018-07-17T08:51:26.217Z,33.16
2018-07-17T08:53:55.022Z,32.81
2018-07-17T08:56:24.516Z,33.12
2018-07-17T08:58:53.331Z,33.81
2018-07-17T09:01:22.169Z,33.91
2018-07-17T09:03:52.212Z,33.63
2018-07-17T09:06:21.915Z,33.58
2018-07-17T09:08:50.727Z,34.44
2018-07-17T09:11:19.619Z,33.09
2018-07-17T09:13:48.441Z,33.55
2018-07-17T09:16:17.236Z,33.69
2018-07-17T09:18:46.683Z,34.25
2018-07-17T09:21:15.446Z,34.75
2018-07-17T09:23:44.874Z,33.88
2018-07-17T09:26:15.611Z,34.26
2018-07-17T09:28:44.994Z,35.24
2018-07-17T09:31:13.763Z,35.29
2018-07-17T09:33:42.615Z,35.01
2018-07-17T09:36:11.446Z,35.33
2018-07-17T09:38:40.334Z,34.90
2018-07-17T09:41:09.168Z,34.42
2018-07-17T09:43:37.964Z,35.00
2018-07-17T09:46:06.865Z,34.28
2018-07-17T09:48:36.083Z,33.81
2018-07-17T09:51:06.356Z,33.45
2018-07-17T09:53:36.199Z,33.47
2018-07-17T09:56:05.945Z,33.84
2018-07-17T09:58:35.076Z,32.68
2018-07-17T10:01:09.144Z,32.33
2018-07-17T10:03:38.626Z,33.28
2018-07-17T10:06:07.511Z,31.26
2018-07-17T10:08:37.169Z,32.58
2018-07-17T10:11:06.640Z,32.77
2018-07-17T10:13:35.944Z,32.23
2018-07-17T10:16:05.164Z,33.11
2018-07-17T10:18:35.054Z,33.23
2018-07-17T10:21:04.219Z,33.01
2018-07-17T10:23:34.800Z,33.67
2018-07-17T10:26:06.055Z,33.43
2018-07-17T10:28:35.053Z,32.68
2018-07-17T10:31:04.184Z,31.07
2018-07-17T10:33:33.066Z,32.75
2018-07-17T10:36:01.855Z,31.65
2018-07-17T10:38:30.744Z,33.22
2018-07-17T10:40:59.591Z,33.09
2018-07-17T10:43:28.426Z,33.10
2018-07-17T10:45:57.260Z,32.05
2018-07-17T10:48:26.156Z,31.42
2018-07-17T10:50:55.128Z,32.00
2018-07-17T10:53:24.148Z,32.40
2018-07-17T10:55:53.956Z,31.90
2018-07-17T10:58:22.766Z,31.32
2018-07-17T11:00:51.531Z,31.94
2018-07-17T11:03:20.960Z,32.59
2018-07-17T11:05:49.754Z,31.62
2018-07-17T11:08:19.129Z,31.58
2018-07-17T11:10:47.935Z,30.53
2018-07-17T11:13:16.776Z,31.60
2018-07-17T11:15:45.606Z,30.97
2018-07-17T11:18:15.251Z,30.57
2018-07-17T11:20:44.010Z,30.71
2018-07-17T11:23:13.472Z,29.74
2018-07-17T11:25:43.306Z,30.79
2018-07-17T11:28:12.134Z,30.87
2018-07-17T11:30:40.911Z,30.79
2018-07-17T11:33:09.828Z,32.40
2018-07-17T11:35:38.635Z,31.85
2018-07-17T11:38:08.789Z,31.14
2018-07-17T11:40:38.271Z,31.42
2018-07-17T11:43:07.542Z,30.06
2018-07-17T11:45:36.723Z,29.93
2018-07-17T11:48:05.940Z,30.50
2018-07-17T11:50:34.948Z,29.87
2018-07-17T11:53:03.823Z,30.27
2018-07-17T11:55:33.655Z,31.38
2018-07-17T11:58:03.313Z,30.78
2018-07-17T12:00:32.157Z,31.20
2018-07-17T12:03:01.535Z,30.98
2018-07-17T12:05:31.276Z,30.96
2018-07-17T12:08:00.712Z,30.35
2018-07-17T12:10:29.495Z,29.83
2018-07-17T12:12:58.331Z,30.33
2018-07-17T12:15:27.120Z,31.40
2018-07-17T12:17:56.873Z,31.64
2018-07-17T12:20:25.852Z,30.44
2018-07-17T12:22:55.294Z,30.25
2018-07-17T12:25:24.533Z,29.84
2018-07-17T12:27:53.322Z,30.42
2018-07-17T12:30:22.106Z,30.20
2018-07-17T12:32:51.151Z,29.74
2018-07-17T12:35:19.925Z,30.15
2018-07-17T12:37:48.841Z,30.48
2018-07-17T12:40:17.817Z,30.27
2018-07-17T12:42:47.059Z,29.50
2018-07-17T12:45:15.862Z,31.01
2018-07-17T12:47:44.731Z,30.29
2018-07-17T12:50:13.828Z,30.46
2018-07-17T12:52:42.615Z,31.21
2018-07-17T12:55:12.531Z,30.32
2018-07-17T12:57:42.150Z,30.51
2018-07-17T13:00:10.925Z,29.97
2018-07-17T13:02:40.383Z,30.51
2018-07-17T13:05:09.702Z,29.73
2018-07-17T13:07:39.310Z,30.56
2018-07-17T13:10:08.519Z,29.94
2018-07-17T13:12:37.771Z,29.92
2018-07-17T13:15:07.226Z,30.14
2018-07-17T13:17:36.783Z,30.48
2018-07-17T13:20:07.056Z,30.72
2018-07-17T13:22:39.428Z,30.81
2018-07-17T13:25:09.183Z,30.45
2018-07-17T13:27:38.272Z,30.80
2018-07-17T13:30:08.748Z,31.53
2018-07-17T13:32:37.986Z,30.18
2018-07-17T13:35:07.633Z,30.78
2018-07-17T13:37:36.754Z,30.27
2018-07-17T13:40:06.348Z,29.60
2018-07-17T13:42:35.250Z,28.89
2018-07-17T13:45:04.146Z,29.32
2018-07-17T13:47:32.968Z,28.98
2018-07-17T13:50:02.005Z,28.98
2018-07-17T13:52:30.830Z,27.88
2018-07-17T13:55:01.001Z,28.44
2018-07-17T13:57:30.767Z,27.48
2018-07-17T13:59:59.610Z,27.93
2018-07-17T14:02:29.033Z,27.97
2018-07-17T14:04:58.423Z,28.35
2018-07-17T14:07:27.876Z,27.85
2018-07-17T14:09:56.673Z,28.42
2018-07-17T14:12:25.607Z,27.99
2018-07-17T14:14:54.362Z,27.31
2018-07-17T14:17:23.179Z,27.97
2018-07-17T14:19:53.046Z,27.18
2018-07-17T14:22:22.816Z,27.65
2018-07-17T14:24:52.121Z,27.23
2018-07-17T14:27:20.911Z,28.64
2018-07-17T14:29:50.037Z,27.56
2018-07-17T14:32:18.900Z,27.55
2018-07-17T14:34:47.706Z,28.45
2018-07-17T14:37:16.601Z,27.46
2018-07-17T14:39:46.506Z,28.48
2018-07-17T14:42:15.375Z,28.31
2018-07-17T14:44:44.170Z,28.36
2018-07-17T14:47:13.018Z,28.07
2018-07-17T14:49:44.092Z,27.36
2018-07-17T14:52:12.942Z,26.94
2018-07-17T14:54:42.492Z,26.19
2018-07-17T14:57:12.227Z,27.13
2018-07-17T14:59:41.068Z,26.44
2018-07-17T15:02:10.654Z,27.33
2018-07-17T15:04:40.608Z,26.54
2018-07-17T15:07:10.018Z,26.63
2018-07-17T15:09:39.243Z,27.33
2018-07-17T15:12:08.194Z,27.32
2018-07-17T15:14:37.237Z,27.57
2018-07-17T15:17:06.840Z,27.91
2018-07-17T15:19:36.452Z,28.11
2018-07-17T15:22:05.632Z,27.67
2018-07-17T15:24:35.898Z,27.14
2018-07-17T15:27:05.967Z,27.18
2018-07-17T15:29:35.122Z,27.15
2018-07-17T15:32:03.956Z,27.56
2018-07-17T15:34:32.710Z,27.01
2018-07-17T15:37:01.454Z,26.57
2018-07-17T15:39:30.314Z,25.77
2018-07-17T15:41:59.130Z,23.86
2018-07-17T15:44:27.931Z,24.42
2018-07-17T15:46:56.701Z,25.11
2018-07-17T15:49:25.500Z,25.82
2018-07-17T15:51:54.467Z,25.51
2018-07-17T15:54:23.233Z,25.99
2018-07-17T15:56:52.781Z,26.16
2018-07-17T15:59:21.601Z,26.00
2018-07-17T16:01:51.010Z,25.51
2018-07-17T16:04:20.390Z,24.77
2018-07-17T16:06:51.138Z,24.89
2018-07-17T16:09:19.923Z,24.05
2018-07-17T16:11:48.701Z,23.79
2018-07-17T16:14:17.866Z,22.50
2018-07-17T16:16:46.339Z,22.26
2018-07-17T16:19:15.744Z,21.65
2018-07-17T16:21:45.009Z,21.65
2018-07-17T16:24:14.762Z,21.71
2018-07-17T16:26:44.339Z,22.54
2018-07-17T16:29:13.099Z,22.77
2018-07-17T16:31:41.883Z,23.71
2018-07-17T16:34:10.662Z,25.22
2018-07-17T16:36:39.942Z,24.93
2018-07-17T16:39:08.892Z,25.82
2018-07-17T16:41:38.882Z,26.00
2018-07-17T16:45:10.627Z,25.99
2018-07-17T16:47:39.631Z,26.89
2018-07-17T16:50:08.656Z,28.06
2018-07-17T16:52:39.402Z,28.11
2018-07-17T16:55:08.989Z,28.70
2018-07-17T16:57:38.631Z,28.67
2018-07-17T17:00:07.842Z,29.72
2018-07-17T17:02:37.315Z,29.03
2018-07-17T17:05:07.022Z,29.80
2018-07-17T17:07:37.478Z,29.94
2018-07-17T17:10:07.484Z,30.21
2018-07-17T17:12:36.629Z,31.05
2018-07-17T17:15:06.442Z,31.23
2018-07-17T17:17:35.776Z,31.66
2018-07-17T17:20:06.304Z,31.69
2018-07-17T17:22:36.127Z,31.65
2018-07-17T17:25:07.014Z,32.15
2018-07-17T17:27:36.770Z,32.46
2018-07-17T17:30:05.815Z,32.25
2018-07-17T17:32:34.694Z,31.90
2018-07-17T17:35:03.502Z,31.99
2018-07-17T17:37:32.578Z,32.89
2018-07-17T17:40:01.351Z,32.49
2018-07-17T17:42:30.119Z,31.06
2018-07-17T17:44:58.862Z,32.17
2018-07-17T17:47:27.686Z,30.49
2018-07-17T17:49:56.813Z,30.78
2018-07-17T17:52:25.581Z,30.39
2018-07-17T17:54:55.224Z,30.50
2018-07-17T17:57:25.191Z,29.68
2018-07-17T17:59:53.967Z,29.95
2018-07-17T18:02:23.227Z,28.70
2018-07-17T18:04:52.571Z,29.03
2018-07-17T18:07:22.003Z,29.06
2018-07-17T18:09:51.273Z,29.44
2018-07-17T18:12:20.020Z,28.84
2018-07-17T18:14:48.834Z,28.00
2018-07-17T18:17:17.586Z,28.27
2018-07-17T18:19:47.562Z,28.24
2018-07-17T18:22:16.830Z,28.78
2018-07-17T18:24:46.685Z,28.92
2018-07-17T18:27:15.465Z,29.04
2018-07-17T18:29:44.252Z,29.56
2018-07-17T18:32:13.078Z,29.75
2018-07-17T18:34:41.814Z,31.47
2018-07-17T18:37:10.662Z,31.49
2018-07-17T18:39:39.501Z,32.10
2018-07-17T18:42:08.525Z,32.35
2018-07-17T18:44:37.804Z,32.74
2018-07-17T18:47:06.906Z,34.74
2018-07-17T18:49:36.410Z,34.95
2018-07-17T18:52:05.728Z,35.37
2018-07-17T18:54:34.754Z,36.10
2018-07-17T18:57:06.046Z,36.09
2018-07-17T18:59:34.877Z,36.58
2018-07-17T19:02:04.194Z,37.68
2018-07-17T19:04:33.615Z,36.74
2018-07-17T19:07:03.119Z,37.90
2018-07-17T19:09:31.883Z,38.17
2018-07-17T19:12:00.747Z,38.26
2018-07-17T19:14:29.550Z,38.37
2018-07-17T19:16:58.416Z,38.93
2018-07-17T19:19:27.965Z,38.12
2018-07-17T19:21:56.766Z,37.89
2018-07-17T19:24:26.383Z,38.77
2018-07-17T19:26:55.701Z,38.06
2018-07-17T19:29:24.477Z,38.94
2018-07-17T19:31:53.245Z,38.39
2018-07-17T19:34:22.059Z,38.70
2018-07-17T19:36:50.863Z,39.59
2018-07-17T19:39:19.832Z,39.46
2018-07-17T19:41:48.662Z,39.03
2018-07-17T19:44:17.439Z,39.39
2018-07-17T19:46:46.250Z,39.36
2018-07-17T19:49:15.043Z,40.09
2018-07-17T19:51:44.151Z,40.29
2018-07-17T19:54:13.051Z,40.78
2018-07-17T19:56:42.376Z,40.65
2018-07-17T19:59:11.489Z,40.65
2018-07-17T20:01:40.307Z,40.41
2018-07-17T20:04:09.846Z,40.17
2018-07-17T20:06:39.149Z,40.93
2018-07-17T20:49:20.388Z,46.33
2018-07-17T20:51:49.152Z,45.61
2018-07-17T20:54:17.930Z,46.44
2018-07-17T20:56:47.840Z,46.85
2018-07-17T20:59:16.612Z,46.95
2018-07-17T21:01:46.342Z,46.91
2018-07-17T21:04:16.278Z,47.94
2018-07-17T21:06:45.068Z,48.48
2018-07-17T21:09:13.842Z,48.83
2018-07-17T21:11:42.656Z,49.09
2018-07-17T21:14:11.432Z,49.34
2018-07-17T21:16:41.359Z,49.08
2018-07-17T21:19:10.976Z,49.38
2018-07-17T21:21:40.413Z,48.51
2018-07-17T21:24:09.183Z,48.63
2018-07-17T21:26:38.551Z,49.80
2018-07-17T21:29:07.346Z,48.89
2018-07-17T21:31:36.592Z,49.94
2018-07-17T21:34:05.379Z,49.86
2018-07-17T21:36:34.139Z,49.83
2018-07-17T21:39:03.440Z,50.15
2018-07-17T21:41:32.518Z,50.74
2018-07-17T21:44:01.467Z,50.70
2018-07-17T21:46:31.101Z,50.61
2018-07-17T21:49:00.948Z,51.22
2018-07-17T21:51:30.573Z,50.56
2018-07-17T21:53:59.431Z,51.69
2018-07-17T21:56:28.980Z,51.70
2018-07-17T21:58:57.927Z,52.69
2018-07-17T22:01:26.784Z,51.22
2018-07-17T22:03:56.200Z,52.10
2018-07-17T22:06:25.111Z,51.42
2018-07-17T22:08:53.943Z,52.79
2018-07-17T22:11:22.754Z,51.92
2018-07-17T22:13:51.580Z,52.17
2018-07-17T22:16:21.656Z,53.24
2018-07-17T22:18:51.146Z,53.72
2018-07-17T22:21:20.628Z,53.84
2018-07-17T22:23:49.367Z,53.38
2018-07-17T22:26:18.777Z,53.99
2018-07-17T22:28:47.514Z,53.72
2018-07-17T22:31:16.292Z,53.34
2018-07-17T22:33:45.096Z,54.16
2018-07-17T22:36:13.831Z,53.99
2018-07-17T22:38:42.669Z,54.28
2018-07-17T22:41:11.452Z,54.67
2018-07-17T22:43:40.222Z,54.70
2018-07-17T22:46:08.966Z,54.31
2018-07-17T22:48:38.614Z,54.89
2018-07-17T22:51:07.627Z,53.71
2018-07-17T22:53:36.416Z,54.95
2018-07-17T22:56:05.833Z,55.42
2018-07-17T22:58:34.606Z,54.92
2018-07-17T23:01:03.601Z,54.50
2018-07-17T23:03:33.276Z,54.72
2018-07-17T23:06:02.372Z,54.78
2018-07-17T23:08:31.302Z,54.73
2018-07-17T23:11:00.448Z,54.85
2018-07-17T23:13:30.171Z,54.99
2018-07-17T23:16:00.291Z,55.82
2018-07-17T23:18:29.930Z,55.41
2018-07-17T23:20:59.707Z,55.26
2018-07-17T23:23:28.491Z,56.44
2018-07-17T23:25:58.253Z,55.65
2018-07-17T23:28:27.031Z,55.58
2018-07-17T23:30:55.843Z,56.14
2018-07-17T23:33:25.414Z,56.23
2018-07-17T23:35:55.199Z,56.64
2018-07-17T23:38:24.105Z,56.00
2018-07-17T23:40:52.946Z,56.76
2018-07-17T23:43:21.840Z,57.05
2018-07-17T23:45:50.610Z,56.83
2018-07-17T23:48:19.359Z,56.80
2018-07-17T23:50:49.019Z,57.14
2018-07-17T23:53:17.780Z,56.99
2018-07-17T23:55:47.157Z,57.18
2018-07-17T23:58:16.003Z,57.14
